sensor_id;sensor_type;location;lat;lon;timestamp;P1;durP1;ratioP1;P2;durP2;ratioP2
39948;SDS011;29070;48.102;-1.652;2023-12-20T00:01:32;11.93;;;1.58;;
39948;SDS011;29070;48.102;-1.652;2023-12-20T00:06:33;2.35;;;0.93;;
39948;SDS011;29070;48.102;-1.652;2023-12-20T00:11:33;5.03;;;1.30;;
39948;SDS011;29070;48.102;-1.652;2023-12-20T00:16:34;4.17;;;0.97;;
39948;SDS011;29070;48.102;-1.652;2023-12-20T00:21:34;9.27;;;0.75;;
39948;SDS011;29070;48.102;-1.652;2023-12-20T00:26:34;4.78;;;1.10;;
39948;SDS011;29070;48.102;-1.652;2023-12-20T00:31:35;3.57;;;1.07;;
39948;SDS011;29070;48.102;-1.652;2023-12-20T00:36:36;2.90;;;0.85;;
39948;SDS011;29070;48.102;-1.652;2023-12-20T00:41:36;8.50;;;0.88;;
39948;SDS011;29070;48.102;-1.652;2023-12-20T00:46:37;4.00;;;0.80;;
39948;SDS011;29070;48.102;-1.652;2023-12-20T00:51:37;4.60;;;0.97;;
39948;SDS011;29070;48.102;-1.652;2023-12-20T00:56:37;3.85;;;0.80;;
39948;SDS011;29070;48.102;-1.652;2023-12-20T01:01:38;3.05;;;0.50;;
39948;SDS011;29070;48.102;-1.652;2023-12-20T01:06:38;4.45;;;1.08;;
39948;SDS011;29070;48.102;-1.652;2023-12-20T01:11:39;3.35;;;0.75;;
39948;SDS011;29070;48.102;-1.652;2023-12-20T01:16:39;4.07;;;0.97;;
39948;SDS011;29070;48.102;-1.652;2023-12-20T01:21:40;7.30;;;0.77;;
39948;SDS011;29070;48.102;-1.652;2023-12-20T01:26:40;6.23;;;1.23;;
39948;SDS011;29070;48.102;-1.652;2023-12-20T01:31:40;7.97;;;1.10;;
39948;SDS011;29070;48.102;-1.652;2023-12-20T01:36:42;6.07;;;1.27;;
39948;SDS011;29070;48.102;-1.652;2023-12-20T01:41:42;5.30;;;1.15;;
39948;SDS011;29070;48.102;-1.652;2023-12-20T01:46:43;6.43;;;1.20;;
39948;SDS011;29070;48.102;-1.652;2023-12-20T01:51:43;5.78;;;1.10;;
39948;SDS011;29070;48.102;-1.652;2023-12-20T01:56:44;7.80;;;1.13;;
39948;SDS011;29070;48.102;-1.652;2023-12-20T02:01:44;4.88;;;0.80;;
39948;SDS011;29070;48.102;-1.652;2023-12-20T02:06:45;3.85;;;0.88;;
39948;SDS011;29070;48.102;-1.652;2023-12-20T02:11:46;4.68;;;1.50;;
39948;SDS011;29070;48.102;-1.652;2023-12-20T02:16:48;7.00;;;1.58;;
39948;SDS011;29070;48.102;-1.652;2023-12-20T02:21:48;6.32;;;1.38;;
39948;SDS011;29070;48.102;-1.652;2023-12-20T02:26:48;4.73;;;1.17;;
39948;SDS011;29070;48.102;-1.652;2023-12-20T02:31:49;11.93;;;1.30;;
39948;SDS011;29070;48.102;-1.652;2023-12-20T02:36:49;4.85;;;1.00;;
39948;SDS011;29070;48.102;-1.652;2023-12-20T02:41:49;6.70;;;0.93;;
39948;SDS011;29070;48.102;-1.652;2023-12-20T02:46:50;8.70;;;1.57;;
39948;SDS011;29070;48.102;-1.652;2023-12-20T02:51:50;4.30;;;1.00;;
39948;SDS011;29070;48.102;-1.652;2023-12-20T02:56:50;8.57;;;1.00;;
39948;SDS011;29070;48.102;-1.652;2023-12-20T03:01:51;4.97;;;1.10;;
39948;SDS011;29070;48.102;-1.652;2023-12-20T03:06:51;3.20;;;0.77;;
39948;SDS011;29070;48.102;-1.652;2023-12-20T03:11:51;6.17;;;1.03;;
39948;SDS011;29070;48.102;-1.652;2023-12-20T03:16:52;6.57;;;1.07;;
39948;SDS011;29070;48.102;-1.652;2023-12-20T03:21:52;10.17;;;1.27;;
39948;SDS011;29070;48.102;-1.652;2023-12-20T03:26:53;6.30;;;0.90;;
39948;SDS011;29070;48.102;-1.652;2023-12-20T03:31:54;11.55;;;1.20;;
39948;SDS011;29070;48.102;-1.652;2023-12-20T03:36:54;10.93;;;0.97;;
39948;SDS011;29070;48.102;-1.652;2023-12-20T03:41:54;6.60;;;0.85;;
39948;SDS011;29070;48.102;-1.652;2023-12-20T03:46:55;6.70;;;0.93;;
39948;SDS011;29070;48.102;-1.652;2023-12-20T03:51:55;3.25;;;0.70;;
39948;SDS011;29070;48.102;-1.652;2023-12-20T03:56:55;4.07;;;1.05;;
39948;SDS011;29070;48.102;-1.652;2023-12-20T04:01:56;6.40;;;0.88;;
39948;SDS011;29070;48.102;-1.652;2023-12-20T04:06:56;4.13;;;1.17;;
39948;SDS011;29070;48.102;-1.652;2023-12-20T04:11:56;5.20;;;0.60;;
39948;SDS011;29070;48.102;-1.652;2023-12-20T04:16:57;3.47;;;1.10;;
39948;SDS011;29070;48.102;-1.652;2023-12-20T04:21:57;5.10;;;1.00;;
39948;SDS011;29070;48.102;-1.652;2023-12-20T04:26:57;5.03;;;1.25;;
39948;SDS011;29070;48.102;-1.652;2023-12-20T04:31:58;5.10;;;0.93;;
39948;SDS011;29070;48.102;-1.652;2023-12-20T04:36:58;4.40;;;0.70;;
39948;SDS011;29070;48.102;-1.652;2023-12-20T04:41:58;3.20;;;0.67;;
39948;SDS011;29070;48.102;-1.652;2023-12-20T04:46:59;3.53;;;0.88;;
39948;SDS011;29070;48.102;-1.652;2023-12-20T04:51:59;2.55;;;0.90;;
39948;SDS011;29070;48.102;-1.652;2023-12-20T04:57:00;4.00;;;0.90;;
39948;SDS011;29070;48.102;-1.652;2023-12-20T05:02:00;5.13;;;0.82;;
39948;SDS011;29070;48.102;-1.652;2023-12-20T05:07:00;4.40;;;0.70;;
39948;SDS011;29070;48.102;-1.652;2023-12-20T05:12:01;4.97;;;0.93;;
39948;SDS011;29070;48.102;-1.652;2023-12-20T05:17:01;7.47;;;1.00;;
39948;SDS011;29070;48.102;-1.652;2023-12-20T05:22:03;5.82;;;0.88;;
39948;SDS011;29070;48.102;-1.652;2023-12-20T05:27:03;8.85;;;1.08;;
39948;SDS011;29070;48.102;-1.652;2023-12-20T05:32:04;3.80;;;1.08;;
39948;SDS011;29070;48.102;-1.652;2023-12-20T05:37:05;4.93;;;0.98;;
39948;SDS011;29070;48.102;-1.652;2023-12-20T05:42:05;3.60;;;1.20;;
39948;SDS011;29070;48.102;-1.652;2023-12-20T05:47:05;4.43;;;0.80;;
39948;SDS011;29070;48.102;-1.652;2023-12-20T05:52:06;3.73;;;1.07;;
39948;SDS011;29070;48.102;-1.652;2023-12-20T05:57:06;6.80;;;1.00;;
39948;SDS011;29070;48.102;-1.652;2023-12-20T06:02:06;7.80;;;1.37;;
39948;SDS011;29070;48.102;-1.652;2023-12-20T06:07:07;4.23;;;1.10;;
39948;SDS011;29070;48.102;-1.652;2023-12-20T06:12:07;3.80;;;1.10;;
39948;SDS011;29070;48.102;-1.652;2023-12-20T06:17:10;2.92;;;0.75;;
39948;SDS011;29070;48.102;-1.652;2023-12-20T06:22:11;3.47;;;1.20;;
39948;SDS011;29070;48.102;-1.652;2023-12-20T06:27:11;3.08;;;0.63;;
39948;SDS011;29070;48.102;-1.652;2023-12-20T06:32:12;3.67;;;0.97;;
39948;SDS011;29070;48.102;-1.652;2023-12-20T06:37:12;7.63;;;0.70;;
39948;SDS011;29070;48.102;-1.652;2023-12-20T06:42:12;5.43;;;1.20;;
39948;SDS011;29070;48.102;-1.652;2023-12-20T06:47:13;4.30;;;1.00;;
39948;SDS011;29070;48.102;-1.652;2023-12-20T06:52:14;2.53;;;0.88;;
39948;SDS011;29070;48.102;-1.652;2023-12-20T06:57:14;13.07;;;1.23;;
39948;SDS011;29070;48.102;-1.652;2023-12-20T07:02:14;3.40;;;1.00;;
39948;SDS011;29070;48.102;-1.652;2023-12-20T07:07:15;9.02;;;1.30;;
39948;SDS011;29070;48.102;-1.652;2023-12-20T07:12:15;5.43;;;1.50;;
39948;SDS011;29070;48.102;-1.652;2023-12-20T07:17:15;7.97;;;1.27;;
39948;SDS011;29070;48.102;-1.652;2023-12-20T07:22:16;5.53;;;1.30;;
39948;SDS011;29070;48.102;-1.652;2023-12-20T07:27:16;4.07;;;1.20;;
39948;SDS011;29070;48.102;-1.652;2023-12-20T07:32:16;5.93;;;1.07;;
39948;SDS011;29070;48.102;-1.652;2023-12-20T07:37:17;7.47;;;1.40;;
39948;SDS011;29070;48.102;-1.652;2023-12-20T07:42:17;5.33;;;1.50;;
39948;SDS011;29070;48.102;-1.652;2023-12-20T07:47:18;9.40;;;1.23;;
39948;SDS011;29070;48.102;-1.652;2023-12-20T07:52:22;4.63;;;1.05;;
39948;SDS011;29070;48.102;-1.652;2023-12-20T07:57:23;5.22;;;0.93;;
39948;SDS011;29070;48.102;-1.652;2023-12-20T08:02:24;2.50;;;1.00;;
39948;SDS011;29070;48.102;-1.652;2023-12-20T08:07:24;7.57;;;1.40;;
39948;SDS011;29070;48.102;-1.652;2023-12-20T08:12:24;5.82;;;1.60;;
39948;SDS011;29070;48.102;-1.652;2023-12-20T08:17:27;5.80;;;1.60;;
39948;SDS011;29070;48.102;-1.652;2023-12-20T08:22:27;5.47;;;1.23;;
39948;SDS011;29070;48.102;-1.652;2023-12-20T08:27:28;6.80;;;1.40;;
39948;SDS011;29070;48.102;-1.652;2023-12-20T08:32:28;4.17;;;1.57;;
39948;SDS011;29070;48.102;-1.652;2023-12-20T08:37:28;2.73;;;1.00;;
39948;SDS011;29070;48.102;-1.652;2023-12-20T08:42:30;4.10;;;1.15;;
39948;SDS011;29070;48.102;-1.652;2023-12-20T08:47:31;4.47;;;1.52;;
39948;SDS011;29070;48.102;-1.652;2023-12-20T08:52:31;4.60;;;1.40;;
39948;SDS011;29070;48.102;-1.652;2023-12-20T08:57:32;6.90;;;1.10;;
39948;SDS011;29070;48.102;-1.652;2023-12-20T09:02:33;12.05;;;1.27;;
39948;SDS011;29070;48.102;-1.652;2023-12-20T09:07:36;7.55;;;1.48;;
39948;SDS011;29070;48.102;-1.652;2023-12-20T09:12:36;9.35;;;1.40;;
39948;SDS011;29070;48.102;-1.652;2023-12-20T09:17:40;7.72;;;1.42;;
39948;SDS011;29070;48.102;-1.652;2023-12-20T09:22:41;4.05;;;1.27;;
39948;SDS011;29070;48.102;-1.652;2023-12-20T09:27:42;5.47;;;1.08;;
39948;SDS011;29070;48.102;-1.652;2023-12-20T09:32:42;7.33;;;1.40;;
39948;SDS011;29070;48.102;-1.652;2023-12-20T09:37:42;5.77;;;1.93;;
39948;SDS011;29070;48.102;-1.652;2023-12-20T09:42:48;10.93;;;1.27;;
39948;SDS011;29070;48.102;-1.652;2023-12-20T09:47:50;4.80;;;1.80;;
39948;SDS011;29070;48.102;-1.652;2023-12-20T09:52:52;7.80;;;1.63;;
39948;SDS011;29070;48.102;-1.652;2023-12-20T09:57:53;2.45;;;0.93;;
39948;SDS011;29070;48.102;-1.652;2023-12-20T10:07:58;8.07;;;1.33;;
39948;SDS011;29070;48.102;-1.652;2023-12-20T10:18:03;4.85;;;1.27;;
39948;SDS011;29070;48.102;-1.652;2023-12-20T10:23:04;4.63;;;1.00;;
39948;SDS011;29070;48.102;-1.652;2023-12-20T10:28:14;10.38;;;1.30;;
39948;SDS011;29070;48.102;-1.652;2023-12-20T10:33:25;12.75;;;1.50;;
39948;SDS011;29070;48.102;-1.652;2023-12-20T10:38:27;5.43;;;1.77;;
39948;SDS011;29070;48.102;-1.652;2023-12-20T10:43:29;12.35;;;1.45;;
39948;SDS011;29070;48.102;-1.652;2023-12-20T10:48:30;6.70;;;1.20;;
39948;SDS011;29070;48.102;-1.652;2023-12-20T10:53:32;7.38;;;1.63;;
39948;SDS011;29070;48.102;-1.652;2023-12-20T10:58:33;5.63;;;1.02;;
39948;SDS011;29070;48.102;-1.652;2023-12-20T11:03:36;11.02;;;0.93;;
39948;SDS011;29070;48.102;-1.652;2023-12-20T11:08:49;7.55;;;1.27;;
39948;SDS011;29070;48.102;-1.652;2023-12-20T11:13:57;9.77;;;1.05;;
39948;SDS011;29070;48.102;-1.652;2023-12-20T11:19:05;8.93;;;1.20;;
39948;SDS011;29070;48.102;-1.652;2023-12-20T11:24:05;12.65;;;2.35;;
39948;SDS011;29070;48.102;-1.652;2023-12-20T11:29:39;6.35;;;1.30;;
39948;SDS011;29070;48.102;-1.652;2023-12-20T11:34:35;9.45;;;1.67;;
39948;SDS011;29070;48.102;-1.652;2023-12-20T11:39:36;7.53;;;1.00;;
39948;SDS011;29070;48.102;-1.652;2023-12-20T11:44:36;8.73;;;1.50;;
39948;SDS011;29070;48.102;-1.652;2023-12-20T11:49:37;10.82;;;1.80;;
39948;SDS011;29070;48.102;-1.652;2023-12-20T11:54:37;6.50;;;1.67;;
39948;SDS011;29070;48.102;-1.652;2023-12-20T11:59:38;8.37;;;2.53;;
39948;SDS011;29070;48.102;-1.652;2023-12-20T12:04:40;5.57;;;1.50;;
39948;SDS011;29070;48.102;-1.652;2023-12-20T12:09:41;4.07;;;1.38;;
39948;SDS011;29070;48.102;-1.652;2023-12-20T12:14:42;11.80;;;1.73;;
39948;SDS011;29070;48.102;-1.652;2023-12-20T12:19:44;5.43;;;0.95;;
39948;SDS011;29070;48.102;-1.652;2023-12-20T12:24:45;5.17;;;1.00;;
39948;SDS011;29070;48.102;-1.652;2023-12-20T12:30:02;8.75;;;1.38;;
39948;SDS011;29070;48.102;-1.652;2023-12-20T12:35:04;8.48;;;1.55;;
39948;SDS011;29070;48.102;-1.652;2023-12-20T12:40:09;10.80;;;1.80;;
39948;SDS011;29070;48.102;-1.652;2023-12-20T12:45:11;6.07;;;0.93;;
39948;SDS011;29070;48.102;-1.652;2023-12-20T12:50:12;12.05;;;1.95;;
39948;SDS011;29070;48.102;-1.652;2023-12-20T12:55:12;8.83;;;1.27;;
39948;SDS011;29070;48.102;-1.652;2023-12-20T13:00:13;4.57;;;1.10;;
39948;SDS011;29070;48.102;-1.652;2023-12-20T13:05:13;7.13;;;1.13;;
39948;SDS011;29070;48.102;-1.652;2023-12-20T13:10:14;8.43;;;1.50;;
39948;SDS011;29070;48.102;-1.652;2023-12-20T13:15:16;8.07;;;1.27;;
39948;SDS011;29070;48.102;-1.652;2023-12-20T13:20:17;4.90;;;1.10;;
39948;SDS011;29070;48.102;-1.652;2023-12-20T13:25:17;6.40;;;1.13;;
39948;SDS011;29070;48.102;-1.652;2023-12-20T13:30:17;5.60;;;1.23;;
39948;SDS011;29070;48.102;-1.652;2023-12-20T13:35:18;6.97;;;1.15;;
39948;SDS011;29070;48.102;-1.652;2023-12-20T13:40:19;8.95;;;1.30;;
39948;SDS011;29070;48.102;-1.652;2023-12-20T13:45:19;7.22;;;0.85;;
39948;SDS011;29070;48.102;-1.652;2023-12-20T13:50:19;10.87;;;1.10;;
39948;SDS011;29070;48.102;-1.652;2023-12-20T13:55:20;1.93;;;0.60;;
39948;SDS011;29070;48.102;-1.652;2023-12-20T14:00:25;4.47;;;1.50;;
39948;SDS011;29070;48.102;-1.652;2023-12-20T14:05:25;4.40;;;0.95;;
39948;SDS011;29070;48.102;-1.652;2023-12-20T14:10:27;7.00;;;1.30;;
39948;SDS011;29070;48.102;-1.652;2023-12-20T14:15:27;5.53;;;1.20;;
39948;SDS011;29070;48.102;-1.652;2023-12-20T14:20:28;6.28;;;1.50;;
39948;SDS011;29070;48.102;-1.652;2023-12-20T14:25:29;7.20;;;1.38;;
39948;SDS011;29070;48.102;-1.652;2023-12-20T14:30:31;7.97;;;1.30;;
39948;SDS011;29070;48.102;-1.652;2023-12-20T14:35:32;4.43;;;1.17;;
39948;SDS011;29070;48.102;-1.652;2023-12-20T14:40:32;6.77;;;1.00;;
39948;SDS011;29070;48.102;-1.652;2023-12-20T14:45:33;10.47;;;1.80;;
39948;SDS011;29070;48.102;-1.652;2023-12-20T14:50:33;8.23;;;1.40;;
39948;SDS011;29070;48.102;-1.652;2023-12-20T14:55:34;8.80;;;1.00;;
39948;SDS011;29070;48.102;-1.652;2023-12-20T15:00:35;5.85;;;1.27;;
39948;SDS011;29070;48.102;-1.652;2023-12-20T15:05:35;5.30;;;1.27;;
39948;SDS011;29070;48.102;-1.652;2023-12-20T15:10:35;2.00;;;0.95;;
39948;SDS011;29070;48.102;-1.652;2023-12-20T15:15:36;4.23;;;1.17;;
39948;SDS011;29070;48.102;-1.652;2023-12-20T15:20:37;4.03;;;0.95;;
39948;SDS011;29070;48.102;-1.652;2023-12-20T15:25:38;6.33;;;1.23;;
39948;SDS011;29070;48.102;-1.652;2023-12-20T15:30:38;6.50;;;0.93;;
39948;SDS011;29070;48.102;-1.652;2023-12-20T15:35:38;4.43;;;0.90;;
39948;SDS011;29070;48.102;-1.652;2023-12-20T15:40:39;4.40;;;1.08;;
39948;SDS011;29070;48.102;-1.652;2023-12-20T15:45:39;8.87;;;1.20;;
39948;SDS011;29070;48.102;-1.652;2023-12-20T15:50:40;5.20;;;1.27;;
39948;SDS011;29070;48.102;-1.652;2023-12-20T15:55:40;4.17;;;1.40;;
39948;SDS011;29070;48.102;-1.652;2023-12-20T16:00:41;5.43;;;1.02;;
39948;SDS011;29070;48.102;-1.652;2023-12-20T16:05:42;3.37;;;1.00;;
39948;SDS011;29070;48.102;-1.652;2023-12-20T16:10:42;7.53;;;1.13;;
39948;SDS011;29070;48.102;-1.652;2023-12-20T16:15:42;8.90;;;1.73;;
39948;SDS011;29070;48.102;-1.652;2023-12-20T16:20:43;5.63;;;0.90;;
39948;SDS011;29070;48.102;-1.652;2023-12-20T16:25:43;4.63;;;0.70;;
39948;SDS011;29070;48.102;-1.652;2023-12-20T16:30:43;5.75;;;1.42;;
39948;SDS011;29070;48.102;-1.652;2023-12-20T16:35:44;4.47;;;1.23;;
39948;SDS011;29070;48.102;-1.652;2023-12-20T16:40:44;14.07;;;2.93;;
39948;SDS011;29070;48.102;-1.652;2023-12-20T16:45:44;19.30;;;6.53;;
39948;SDS011;29070;48.102;-1.652;2023-12-20T16:50:45;13.33;;;3.77;;
39948;SDS011;29070;48.102;-1.652;2023-12-20T16:55:45;9.20;;;2.95;;
39948;SDS011;29070;48.102;-1.652;2023-12-20T17:00:46;7.30;;;2.78;;
39948;SDS011;29070;48.102;-1.652;2023-12-20T17:05:47;6.28;;;2.50;;
39948;SDS011;29070;48.102;-1.652;2023-12-20T17:10:47;11.18;;;3.25;;
39948;SDS011;29070;48.102;-1.652;2023-12-20T17:15:47;6.90;;;2.53;;
39948;SDS011;29070;48.102;-1.652;2023-12-20T17:20:48;4.73;;;1.90;;
39948;SDS011;29070;48.102;-1.652;2023-12-20T17:25:48;6.00;;;2.27;;
39948;SDS011;29070;48.102;-1.652;2023-12-20T17:30:48;8.63;;;3.73;;
39948;SDS011;29070;48.102;-1.652;2023-12-20T17:35:49;7.40;;;2.70;;
39948;SDS011;29070;48.102;-1.652;2023-12-20T17:40:49;7.23;;;2.43;;
39948;SDS011;29070;48.102;-1.652;2023-12-20T17:45:49;8.02;;;2.53;;
39948;SDS011;29070;48.102;-1.652;2023-12-20T17:50:50;4.30;;;2.10;;
39948;SDS011;29070;48.102;-1.652;2023-12-20T17:55:50;4.95;;;1.92;;
39948;SDS011;29070;48.102;-1.652;2023-12-20T18:00:51;8.90;;;3.83;;
39948;SDS011;29070;48.102;-1.652;2023-12-20T18:05:51;9.90;;;2.43;;
39948;SDS011;29070;48.102;-1.652;2023-12-20T18:10:52;7.13;;;2.53;;
39948;SDS011;29070;48.102;-1.652;2023-12-20T18:15:52;3.43;;;1.80;;
39948;SDS011;29070;48.102;-1.652;2023-12-20T18:20:52;9.43;;;3.00;;
39948;SDS011;29070;48.102;-1.652;2023-12-20T18:25:54;7.30;;;1.63;;
39948;SDS011;29070;48.102;-1.652;2023-12-20T18:30:55;4.63;;;1.10;;
39948;SDS011;29070;48.102;-1.652;2023-12-20T18:35:55;5.70;;;1.60;;
39948;SDS011;29070;48.102;-1.652;2023-12-20T18:40:56;3.90;;;1.23;;
39948;SDS011;29070;48.102;-1.652;2023-12-20T18:45:56;3.67;;;1.55;;
39948;SDS011;29070;48.102;-1.652;2023-12-20T18:50:57;5.60;;;1.27;;
39948;SDS011;29070;48.102;-1.652;2023-12-20T18:55:57;2.00;;;0.80;;
39948;SDS011;29070;48.102;-1.652;2023-12-20T19:00:57;5.63;;;1.50;;
39948;SDS011;29070;48.102;-1.652;2023-12-20T19:06:00;6.32;;;1.80;;
39948;SDS011;29070;48.102;-1.652;2023-12-20T19:11:02;6.38;;;2.42;;
39948;SDS011;29070;48.102;-1.652;2023-12-20T19:16:03;5.18;;;2.00;;
39948;SDS011;29070;48.102;-1.652;2023-12-20T19:21:04;5.40;;;2.38;;
39948;SDS011;29070;48.102;-1.652;2023-12-20T19:26:07;7.65;;;3.50;;
39948;SDS011;29070;48.102;-1.652;2023-12-20T19:31:12;8.30;;;3.58;;
39948;SDS011;29070;48.102;-1.652;2023-12-20T19:36:13;6.38;;;3.00;;
39948;SDS011;29070;48.102;-1.652;2023-12-20T19:41:13;4.80;;;2.50;;
39948;SDS011;29070;48.102;-1.652;2023-12-20T19:46:14;5.37;;;1.90;;
39948;SDS011;29070;48.102;-1.652;2023-12-20T19:51:14;4.85;;;1.55;;
39948;SDS011;29070;48.102;-1.652;2023-12-20T19:56:14;5.10;;;1.90;;
39948;SDS011;29070;48.102;-1.652;2023-12-20T20:01:15;6.28;;;2.17;;
39948;SDS011;29070;48.102;-1.652;2023-12-20T20:06:15;3.20;;;1.23;;
39948;SDS011;29070;48.102;-1.652;2023-12-20T20:11:16;7.03;;;1.73;;
39948;SDS011;29070;48.102;-1.652;2023-12-20T20:16:16;6.50;;;2.10;;
39948;SDS011;29070;48.102;-1.652;2023-12-20T20:21:16;9.47;;;2.40;;
39948;SDS011;29070;48.102;-1.652;2023-12-20T20:26:17;6.93;;;2.33;;
39948;SDS011;29070;48.102;-1.652;2023-12-20T20:31:17;6.07;;;1.50;;
39948;SDS011;29070;48.102;-1.652;2023-12-20T20:36:17;3.57;;;1.33;;
39948;SDS011;29070;48.102;-1.652;2023-12-20T20:41:18;5.43;;;1.87;;
39948;SDS011;29070;48.102;-1.652;2023-12-20T20:46:18;6.67;;;1.90;;
39948;SDS011;29070;48.102;-1.652;2023-12-20T20:51:20;7.45;;;1.90;;
39948;SDS011;29070;48.102;-1.652;2023-12-20T20:56:20;6.30;;;2.10;;
39948;SDS011;29070;48.102;-1.652;2023-12-20T21:01:21;7.88;;;2.38;;
39948;SDS011;29070;48.102;-1.652;2023-12-20T21:06:21;8.18;;;2.08;;
39948;SDS011;29070;48.102;-1.652;2023-12-20T21:11:22;7.30;;;1.93;;
39948;SDS011;29070;48.102;-1.652;2023-12-20T21:16:22;7.90;;;2.05;;
39948;SDS011;29070;48.102;-1.652;2023-12-20T21:21:23;9.13;;;2.10;;
39948;SDS011;29070;48.102;-1.652;2023-12-20T21:26:24;9.57;;;1.53;;
39948;SDS011;29070;48.102;-1.652;2023-12-20T21:31:24;11.07;;;1.43;;
39948;SDS011;29070;48.102;-1.652;2023-12-20T21:36:24;8.20;;;1.70;;
39948;SDS011;29070;48.102;-1.652;2023-12-20T21:41:25;6.50;;;1.53;;
39948;SDS011;29070;48.102;-1.652;2023-12-20T21:46:25;8.30;;;2.10;;
39948;SDS011;29070;48.102;-1.652;2023-12-20T21:51:26;10.93;;;2.00;;
39948;SDS011;29070;48.102;-1.652;2023-12-20T21:56:26;6.20;;;1.73;;
39948;SDS011;29070;48.102;-1.652;2023-12-20T22:01:27;7.10;;;1.37;;
39948;SDS011;29070;48.102;-1.652;2023-12-20T22:06:27;6.60;;;1.90;;
39948;SDS011;29070;48.102;-1.652;2023-12-20T22:11:27;4.90;;;1.70;;
39948;SDS011;29070;48.102;-1.652;2023-12-20T22:16:28;9.80;;;1.63;;
39948;SDS011;29070;48.102;-1.652;2023-12-20T22:21:29;14.90;;;2.20;;
39948;SDS011;29070;48.102;-1.652;2023-12-20T22:26:29;11.90;;;1.90;;
39948;SDS011;29070;48.102;-1.652;2023-12-20T22:31:30;15.20;;;2.53;;
39948;SDS011;29070;48.102;-1.652;2023-12-20T22:36:31;18.47;;;2.30;;
39948;SDS011;29070;48.102;-1.652;2023-12-20T22:41:31;14.23;;;2.17;;
39948;SDS011;29070;48.102;-1.652;2023-12-20T22:46:31;12.60;;;1.90;;
39948;SDS011;29070;48.102;-1.652;2023-12-20T22:51:33;12.18;;;1.60;;
39948;SDS011;29070;48.102;-1.652;2023-12-20T22:56:33;12.73;;;2.08;;
39948;SDS011;29070;48.102;-1.652;2023-12-20T23:01:34;12.43;;;1.93;;
39948;SDS011;29070;48.102;-1.652;2023-12-20T23:06:34;9.98;;;2.60;;
39948;SDS011;29070;48.102;-1.652;2023-12-20T23:11:34;14.05;;;3.00;;
39948;SDS011;29070;48.102;-1.652;2023-12-20T23:16:36;15.40;;;2.63;;
39948;SDS011;29070;48.102;-1.652;2023-12-20T23:21:37;12.73;;;2.30;;
39948;SDS011;29070;48.102;-1.652;2023-12-20T23:26:37;11.33;;;2.10;;
39948;SDS011;29070;48.102;-1.652;2023-12-20T23:31:38;15.93;;;2.63;;
39948;SDS011;29070;48.102;-1.652;2023-12-20T23:36:38;13.03;;;2.77;;
39948;SDS011;29070;48.102;-1.652;2023-12-20T23:41:39;16.58;;;3.25;;
39948;SDS011;29070;48.102;-1.652;2023-12-20T23:46:39;11.57;;;2.43;;
39948;SDS011;29070;48.102;-1.652;2023-12-20T23:51:39;16.40;;;3.27;;
39948;SDS011;29070;48.102;-1.652;2023-12-20T23:56:41;13.85;;;2.90;;
